Time;durP1;ratioP1;P1;durP2;ratioP2;P2;SDS_P1;SDS_P2;PMS_P1;PMS_P2;Temp;Humidity;BMP_temperature;BMP_pressure;BME280_temperature;BME280_humidity;BME280_pressure;Samples;Min_cycle;Max_cycle;Signal;HPM_P1;HPM_P2
2022/07/06 00:01:39;;;;;;;5.13;2.80;;;;;;;;;;5039670;28;20116;-67
2022/07/06 00:04:05;;;;;;;5.22;2.70;;;;;;;;;;5039321;28;20171;-67
2022/07/06 00:06:31;;;;;;;5.63;2.80;;;;;;;;;;5033917;28;20025;-67
2022/07/06 00:08:57;;;;;;;6.13;3.10;;;;;;;;;;5045164;28;20695;-66
2022/07/06 00:11:23;;;;;;;5.03;2.90;;;;;;;;;;5041984;28;20033;-67
2022/07/06 00:13:49;;;;;;;4.85;2.80;;;;;;;;;;5044665;28;20048;-67
2022/07/06 00:16:14;;;;;;;4.78;2.95;;;;;;;;;;5047812;28;20411;-67
2022/07/06 00:18:40;;;;;;;4.57;2.83;;;;;;;;;;5045057;28;20064;-67
2022/07/06 00:21:05;;;;;;;3.72;2.50;;;;;;;;;;5041795;28;20079;-67
2022/07/06 00:23:31;;;;;;;4.15;2.47;;;;;;;;;;5037736;28;20061;-67
2022/07/06 00:25:56;;;;;;;4.20;2.45;;;;;;;;;;5040598;28;20090;-67
2022/07/06 00:28:21;;;;;;;3.72;2.50;;;;;;;;;;5040869;28;20041;-67
2022/07/06 00:30:47;;;;;;;5.38;3.00;;;;;;;;;;5047890;28;20493;-67
2022/07/06 00:33:12;;;;;;;4.65;3.05;;;;;;;;;;5048454;28;20462;-67
2022/07/06 00:35:37;;;;;;;3.95;2.63;;;;;;;;;;5045494;28;20552;-66
2022/07/06 00:38:03;;;;;;;3.88;2.83;;;;;;;;;;5039914;28;20045;-67
2022/07/06 00:40:29;;;;;;;6.53;2.92;;;;;;;;;;5039033;28;20037;-67
2022/07/06 00:42:55;;;;;;;4.15;2.67;;;;;;;;;;5045218;28;20044;-67
2022/07/06 00:45:20;;;;;;;5.32;2.80;;;;;;;;;;5044317;28;20020;-67
2022/07/06 00:47:46;;;;;;;3.20;2.55;;;;;;;;;;5039333;28;20068;-67
2022/07/06 00:50:13;;;;;;;4.07;2.63;;;;;;;;;;5043414;28;20145;-67
2022/07/06 00:52:40;;;;;;;5.20;3.15;;;;;;;;;;5049094;28;20698;-67
2022/07/06 00:55:05;;;;;;;4.38;2.72;;;;;;;;;;5031640;28;20052;-66
2022/07/06 00:57:31;;;;;;;4.85;2.78;;;;;;;;;;5040222;28;20495;-67
2022/07/06 00:59:56;;;;;;;5.28;2.85;;;;;;;;;;5049384;28;20715;-67
2022/07/06 01:02:22;;;;;;;5.80;2.60;;;;;;;;;;5044934;28;20029;-67
2022/07/06 01:04:48;;;;;;;4.28;2.88;;;;;;;;;;5047800;28;20044;-67
2022/07/06 01:07:13;;;;;;;3.22;2.67;;;;;;;;;;5043124;28;21356;-67
2022/07/06 01:09:39;;;;;;;4.03;2.85;;;;;;;;;;5028594;28;20698;-67
2022/07/06 01:12:04;;;;;;;5.63;2.70;;;;;;;;;;5040170;28;20075;-67
2022/07/06 01:14:30;;;;;;;3.88;3.03;;;;;;;;;;5050626;28;20044;-67
2022/07/06 01:16:56;;;;;;;4.18;2.80;;;;;;;;;;5038733;28;20041;-67
2022/07/06 01:19:22;;;;;;;9.48;2.92;;;;;;;;;;5046967;28;20029;-67
2022/07/06 01:21:47;;;;;;;4.07;3.13;;;;;;;;;;5046481;28;20025;-66
2022/07/06 01:24:13;;;;;;;4.88;3.17;;;;;;;;;;5039153;28;20045;-67
2022/07/06 01:26:38;;;;;;;4.72;3.15;;;;;;;;;;5048838;28;20052;-66
2022/07/06 01:29:03;;;;;;;4.43;2.65;;;;;;;;;;5050713;28;20442;-66
2022/07/06 01:31:29;;;;;;;4.80;3.00;;;;;;;;;;5044547;28;20076;-66
2022/07/06 01:33:56;;;;;;;4.32;2.95;;;;;;;;;;5043341;28;20028;-66
2022/07/06 01:36:22;;;;;;;3.85;2.90;;;;;;;;;;5049511;28;20044;-67
2022/07/06 01:38:50;;;;;;;8.75;3.85;;;;;;;;;;5044704;28;20519;-66
2022/07/06 01:41:16;;;;;;;4.70;3.08;;;;;;;;;;5049910;28;20033;-66
2022/07/06 01:43:41;;;;;;;5.57;3.30;;;;;;;;;;5050426;28;20033;-66
2022/07/06 01:46:07;;;;;;;5.22;3.20;;;;;;;;;;5045998;28;20029;-66
2022/07/06 01:48:32;;;;;;;5.25;3.20;;;;;;;;;;5048780;28;20385;-66
2022/07/06 01:50:58;;;;;;;5.57;3.58;;;;;;;;;;5047497;28;20077;-66
2022/07/06 01:53:23;;;;;;;4.10;2.90;;;;;;;;;;5047965;28;20036;-66
2022/07/06 01:55:49;;;;;;;5.05;2.97;;;;;;;;;;5048526;28;20392;-67
2022/07/06 01:58:14;;;;;;;5.28;3.15;;;;;;;;;;5044294;28;20059;-66
2022/07/06 02:00:40;;;;;;;6.78;3.13;;;;;;;;;;5043480;28;20035;-66
2022/07/06 02:03:05;;;;;;;3.83;3.20;;;;;;;;;;5040044;28;20029;-67
2022/07/06 02:05:30;;;;;;;4.45;3.25;;;;;;;;;;5037575;28;20045;-66
2022/07/06 02:07:56;;;;;;;5.20;3.40;;;;;;;;;;5049468;28;20044;-66
2022/07/06 02:10:21;;;;;;;6.88;3.45;;;;;;;;;;5049650;28;20025;-67
2022/07/06 02:12:46;;;;;;;4.40;3.20;;;;;;;;;;5038018;28;20507;-67
2022/07/06 02:15:12;;;;;;;5.90;3.58;;;;;;;;;;5038000;28;20040;-67
2022/07/06 02:17:37;;;;;;;5.95;3.67;;;;;;;;;;5043572;28;20037;-67
2022/07/06 02:20:04;;;;;;;7.10;3.78;;;;;;;;;;5047625;28;20040;-66
2022/07/06 02:22:30;;;;;;;9.10;3.90;;;;;;;;;;5031751;28;20071;-67
2022/07/06 02:24:55;;;;;;;7.25;3.80;;;;;;;;;;5049204;28;20025;-66
2022/07/06 02:27:20;;;;;;;5.88;3.60;;;;;;;;;;5049993;28;20023;-66
2022/07/06 02:29:46;;;;;;;5.28;3.70;;;;;;;;;;5049602;28;20025;-66
2022/07/06 02:32:11;;;;;;;5.28;3.67;;;;;;;;;;5048061;28;20025;-66
2022/07/06 02:34:36;;;;;;;6.45;3.67;;;;;;;;;;5048149;28;20025;-66
2022/07/06 02:37:02;;;;;;;5.63;3.72;;;;;;;;;;5046141;28;20029;-66
2022/07/06 02:39:27;;;;;;;5.03;3.60;;;;;;;;;;5041759;28;20074;-66
2022/07/06 02:41:52;;;;;;;5.85;3.70;;;;;;;;;;5045166;28;20108;-66
2022/07/06 02:44:18;;;;;;;4.75;3.78;;;;;;;;;;5040958;28;20033;-67
2022/07/06 02:46:43;;;;;;;5.85;3.80;;;;;;;;;;5038244;28;20030;-66
2022/07/06 02:49:09;;;;;;;7.22;3.72;;;;;;;;;;5037630;28;20094;-66
2022/07/06 02:51:34;;;;;;;8.30;3.55;;;;;;;;;;5047080;28;20052;-66
2022/07/06 02:53:59;;;;;;;7.07;4.15;;;;;;;;;;5048840;28;20078;-67
2022/07/06 02:56:24;;;;;;;5.68;3.35;;;;;;;;;;5049174;28;20048;-67
2022/07/06 02:58:50;;;;;;;6.95;3.30;;;;;;;;;;5041434;28;20030;-66
2022/07/06 03:01:15;;;;;;;6.72;3.15;;;;;;;;;;5047163;28;20033;-66
2022/07/06 03:03:40;;;;;;;5.30;3.70;;;;;;;;;;5041029;28;20018;-66
2022/07/06 03:06:06;;;;;;;7.10;3.90;;;;;;;;;;5042266;28;20045;-66
2022/07/06 03:08:31;;;;;;;5.43;3.63;;;;;;;;;;5045221;28;20029;-66
2022/07/06 03:10:56;;;;;;;7.10;3.85;;;;;;;;;;5047452;28;20427;-66
2022/07/06 03:13:22;;;;;;;5.80;3.70;;;;;;;;;;5037319;28;20618;-66
2022/07/06 03:15:47;;;;;;;8.85;3.78;;;;;;;;;;5039997;28;20112;-67
2022/07/06 03:18:13;;;;;;;5.80;4.15;;;;;;;;;;5042478;28;20534;-67
2022/07/06 03:20:38;;;;;;;5.22;3.67;;;;;;;;;;5044707;28;20131;-67
2022/07/06 03:23:03;;;;;;;6.95;3.65;;;;;;;;;;5048106;28;20064;-67
2022/07/06 03:25:29;;;;;;;6.40;3.50;;;;;;;;;;5048393;28;20519;-67
2022/07/06 03:27:54;;;;;;;4.72;3.50;;;;;;;;;;5046936;28;20036;-66
2022/07/06 03:30:19;;;;;;;6.95;3.78;;;;;;;;;;5044881;28;20667;-66
2022/07/06 03:32:45;;;;;;;5.90;3.85;;;;;;;;;;5047033;28;20048;-67
2022/07/06 03:35:10;;;;;;;6.47;3.58;;;;;;;;;;5039503;28;20102;-67
2022/07/06 03:37:35;;;;;;;4.28;3.50;;;;;;;;;;5044890;28;20401;-66
2022/07/06 03:40:01;;;;;;;10.30;3.78;;;;;;;;;;5043151;28;20044;-67
2022/07/06 03:42:26;;;;;;;6.72;3.97;;;;;;;;;;5042914;28;20120;-66
2022/07/06 03:44:51;;;;;;;5.57;3.47;;;;;;;;;;5045464;28;20033;-67
2022/07/06 03:47:17;;;;;;;5.20;3.80;;;;;;;;;;5042438;28;20170;-67
2022/07/06 03:49:42;;;;;;;7.22;3.90;;;;;;;;;;5043817;28;20037;-66
2022/07/06 03:52:07;;;;;;;7.72;3.97;;;;;;;;;;5047662;28;20033;-67
2022/07/06 03:54:34;;;;;;;5.28;3.50;;;;;;;;;;5048472;28;20126;-67
2022/07/06 03:56:59;;;;;;;7.50;3.70;;;;;;;;;;5038408;28;20072;-67
2022/07/06 03:59:24;;;;;;;8.75;3.53;;;;;;;;;;5037868;28;20159;-67
2022/07/06 04:01:50;;;;;;;5.68;3.97;;;;;;;;;;5041881;28;20033;-66
2022/07/06 04:04:15;;;;;;;6.10;3.58;;;;;;;;;;5044309;28;20036;-66
2022/07/06 04:06:41;;;;;;;5.35;3.58;;;;;;;;;;5045174;28;20032;-66
2022/07/06 04:09:06;;;;;;;6.22;3.75;;;;;;;;;;5047062;28;20574;-66
2022/07/06 04:11:31;;;;;;;6.93;3.70;;;;;;;;;;5047596;28;20041;-66
2022/07/06 04:13:57;;;;;;;4.78;3.30;;;;;;;;;;5041269;28;20037;-66
2022/07/06 04:16:22;;;;;;;5.53;3.55;;;;;;;;;;5044506;28;20032;-67
2022/07/06 04:18:47;;;;;;;7.25;3.67;;;;;;;;;;5042687;28;20029;-66
2022/07/06 04:21:13;;;;;;;5.45;3.25;;;;;;;;;;5046535;28;20079;-66
2022/07/06 04:23:38;;;;;;;5.15;3.70;;;;;;;;;;5044202;28;20043;-66
2022/07/06 04:26:03;;;;;;;5.70;3.70;;;;;;;;;;5045112;28;20041;-66
2022/07/06 04:28:29;;;;;;;6.32;3.70;;;;;;;;;;5048452;28;20041;-66
2022/07/06 04:30:54;;;;;;;5.38;3.35;;;;;;;;;;5047638;28;20024;-67
2022/07/06 04:33:20;;;;;;;6.63;3.50;;;;;;;;;;5047728;28;20025;-66
2022/07/06 04:35:45;;;;;;;6.25;3.40;;;;;;;;;;5048688;28;20079;-66
2022/07/06 04:38:10;;;;;;;5.57;3.50;;;;;;;;;;5051643;28;20559;-66
2022/07/06 04:40:36;;;;;;;6.00;3.55;;;;;;;;;;5051487;28;20513;-67
2022/07/06 04:43:01;;;;;;;6.38;3.90;;;;;;;;;;5046621;28;20037;-67
2022/07/06 04:45:26;;;;;;;7.38;3.38;;;;;;;;;;5044792;28;20031;-67
2022/07/06 04:47:52;;;;;;;4.93;3.50;;;;;;;;;;5047527;28;20044;-66
2022/07/06 04:50:17;;;;;;;5.13;3.20;;;;;;;;;;5047221;28;20072;-66
2022/07/06 04:52:42;;;;;;;5.40;3.50;;;;;;;;;;5042182;28;20046;-67
2022/07/06 04:55:09;;;;;;;7.57;3.40;;;;;;;;;;5046852;28;20571;-65
2022/07/06 04:57:34;;;;;;;6.60;3.67;;;;;;;;;;5038984;28;20022;-66
2022/07/06 05:00:00;;;;;;;6.03;3.40;;;;;;;;;;5040903;28;20095;-65
2022/07/06 05:02:26;;;;;;;6.95;3.90;;;;;;;;;;5043889;28;20037;-66
2022/07/06 05:04:51;;;;;;;5.60;3.25;;;;;;;;;;5049555;28;20044;-65
2022/07/06 05:07:17;;;;;;;4.50;2.95;;;;;;;;;;5050927;28;20032;-65
2022/07/06 05:09:42;;;;;;;5.68;3.42;;;;;;;;;;5047500;28;20043;-65
2022/07/06 05:12:08;;;;;;;5.30;3.70;;;;;;;;;;5046314;28;20029;-65
2022/07/06 05:14:34;;;;;;;7.13;3.63;;;;;;;;;;5047805;28;20578;-65
2022/07/06 05:16:59;;;;;;;6.03;3.65;;;;;;;;;;5050607;28;20037;-65
2022/07/06 05:19:24;;;;;;;6.00;3.42;;;;;;;;;;5050769;28;20491;-65
2022/07/06 05:21:50;;;;;;;5.10;3.50;;;;;;;;;;5049258;28;20029;-66
2022/07/06 05:24:15;;;;;;;6.07;3.65;;;;;;;;;;5035449;28;20021;-65
2022/07/06 05:26:41;;;;;;;9.57;4.28;;;;;;;;;;5041689;28;20033;-66
2022/07/06 05:29:07;;;;;;;6.70;3.80;;;;;;;;;;5046216;28;20525;-65
2022/07/06 05:31:32;;;;;;;6.07;4.28;;;;;;;;;;5039913;28;20033;-65
2022/07/06 05:33:57;;;;;;;8.43;4.22;;;;;;;;;;5048021;28;20032;-65
2022/07/06 05:36:23;;;;;;;6.85;3.50;;;;;;;;;;5039989;28;20103;-63
2022/07/06 05:38:48;;;;;;;5.82;3.75;;;;;;;;;;5045860;28;20457;-63
2022/07/06 05:41:13;;;;;;;7.57;3.78;;;;;;;;;;5044524;28;20408;-64
2022/07/06 05:43:39;;;;;;;8.02;3.97;;;;;;;;;;5046764;28;20385;-63
2022/07/06 05:46:04;;;;;;;7.43;3.83;;;;;;;;;;5046404;28;20017;-63
2022/07/06 05:51:14;;;;;;;6.68;4.20;;;;;;;;;;5046156;28;20091;-63
2022/07/06 05:53:39;;;;;;;8.82;3.97;;;;;;;;;;5029412;28;20057;-63
2022/07/06 05:56:04;;;;;;;6.53;4.18;;;;;;;;;;5046877;28;20021;-63
2022/07/06 05:58:30;;;;;;;8.20;4.72;;;;;;;;;;5045062;28;20128;-64
2022/07/06 06:00:55;;;;;;;6.78;3.92;;;;;;;;;;5051459;28;20047;-63
2022/07/06 06:03:20;;;;;;;7.70;4.20;;;;;;;;;;5049783;28;20037;-63
2022/07/06 06:05:46;;;;;;;7.60;4.85;;;;;;;;;;5041517;28;20033;-63
2022/07/06 06:08:11;;;;;;;8.77;5.07;;;;;;;;;;5032911;28;20057;-63
2022/07/06 06:10:37;;;;;;;7.28;4.72;;;;;;;;;;5047695;28;20053;-64
2022/07/06 06:13:02;;;;;;;12.07;5.47;;;;;;;;;;5047853;28;20024;-63
2022/07/06 06:15:28;;;;;;;9.70;4.55;;;;;;;;;;5049080;28;20025;-64
2022/07/06 06:17:53;;;;;;;9.02;4.78;;;;;;;;;;5044974;28;20415;-63
2022/07/06 06:20:18;;;;;;;10.63;5.30;;;;;;;;;;5044328;28;20090;-63
2022/07/06 06:22:58;;;;;;;11.52;5.30;;;;;;;;;;5045212;28;20106;-63
2022/07/06 06:25:33;;;;;;;8.73;5.18;;;;;;;;;;5046116;28;20056;-64
2022/07/06 06:27:59;;;;;;;8.85;5.50;;;;;;;;;;5043429;28;20025;-64
2022/07/06 06:30:24;;;;;;;13.02;5.30;;;;;;;;;;5059799;28;20075;-64
2022/07/06 06:32:50;;;;;;;8.73;4.95;;;;;;;;;;5048001;28;20039;-63
2022/07/06 06:35:15;;;;;;;8.15;4.93;;;;;;;;;;5048457;28;20048;-63
2022/07/06 06:37:41;;;;;;;10.35;5.40;;;;;;;;;;5043438;28;20037;-63
2022/07/06 06:40:07;;;;;;;10.55;4.93;;;;;;;;;;5045907;28;20475;-64
2022/07/06 06:42:35;;;;;;;7.15;4.68;;;;;;;;;;5032456;28;20056;-64
2022/07/06 06:45:01;;;;;;;11.65;5.05;;;;;;;;;;5045386;28;20029;-63
2022/07/06 06:47:26;;;;;;;11.32;5.25;;;;;;;;;;5048004;28;20043;-64
2022/07/06 06:49:51;;;;;;;10.10;4.93;;;;;;;;;;5048109;28;20101;-64
2022/07/06 06:52:17;;;;;;;11.20;4.60;;;;;;;;;;5048226;28;20455;-64
2022/07/06 06:54:42;;;;;;;9.15;5.30;;;;;;;;;;5047916;28;20029;-64
2022/07/06 06:57:07;;;;;;;9.40;5.78;;;;;;;;;;5039286;28;20262;-63
2022/07/06 06:59:33;;;;;;;8.90;4.82;;;;;;;;;;5032038;28;20643;-64
2022/07/06 07:01:58;;;;;;;9.30;5.28;;;;;;;;;;5042432;28;20037;-63
2022/07/06 07:04:24;;;;;;;9.50;5.25;;;;;;;;;;5046355;28;20070;-64
2022/07/06 07:06:49;;;;;;;10.90;5.93;;;;;;;;;;5031482;28;20396;-64
2022/07/06 07:09:14;;;;;;;8.48;5.22;;;;;;;;;;5041420;28;20037;-64
2022/07/06 07:11:40;;;;;;;10.07;6.25;;;;;;;;;;5044648;28;20047;-64
2022/07/06 07:14:05;;;;;;;9.48;5.47;;;;;;;;;;5034877;28;20459;-64
2022/07/06 07:16:30;;;;;;;14.48;6.53;;;;;;;;;;5030053;28;20030;-64
2022/07/06 07:18:55;;;;;;;12.85;6.15;;;;;;;;;;5031045;28;20444;-64
2022/07/06 07:21:21;;;;;;;13.00;6.75;;;;;;;;;;5048208;28;20400;-64
2022/07/06 07:23:46;;;;;;;10.68;6.35;;;;;;;;;;5038693;28;20025;-64
2022/07/06 07:26:12;;;;;;;11.85;7.47;;;;;;;;;;5029531;28;20056;-64
2022/07/06 07:28:37;;;;;;;13.57;7.47;;;;;;;;;;5041549;28;20136;-64
2022/07/06 07:31:04;;;;;;;13.30;7.68;;;;;;;;;;5042494;28;20032;-64
2022/07/06 07:33:30;;;;;;;16.75;7.22;;;;;;;;;;5043740;28;20031;-64
2022/07/06 07:35:55;;;;;;;11.43;6.53;;;;;;;;;;5039325;28;20029;-63
2022/07/06 07:38:20;;;;;;;11.27;6.35;;;;;;;;;;5041344;28;20102;-63
2022/07/06 07:40:46;;;;;;;11.18;5.03;;;;;;;;;;5040704;28;20071;-64
2022/07/06 07:43:11;;;;;;;8.77;4.30;;;;;;;;;;5038196;28;20041;-64
2022/07/06 07:45:37;;;;;;;8.68;4.10;;;;;;;;;;5040278;28;20032;-64
2022/07/06 07:48:02;;;;;;;10.90;4.55;;;;;;;;;;5036753;28;20036;-64
2022/07/06 07:50:29;;;;;;;8.75;3.83;;;;;;;;;;5038878;28;20065;-64
2022/07/06 07:52:54;;;;;;;9.07;4.13;;;;;;;;;;5040712;28;20083;-64
2022/07/06 07:55:20;;;;;;;7.75;3.35;;;;;;;;;;5040446;28;20041;-64
2022/07/06 07:57:45;;;;;;;9.80;3.70;;;;;;;;;;5042742;28;20028;-64
2022/07/06 08:00:11;;;;;;;9.48;4.07;;;;;;;;;;5038119;28;20052;-64
2022/07/06 08:02:36;;;;;;;11.55;4.50;;;;;;;;;;5041526;28;20507;-63
2022/07/06 08:05:03;;;;;;;8.00;3.83;;;;;;;;;;5038643;28;20048;-64
2022/07/06 08:07:29;;;;;;;12.35;4.88;;;;;;;;;;5036089;28;20038;-64
2022/07/06 08:09:54;;;;;;;10.07;4.78;;;;;;;;;;5037677;28;20040;-64
2022/07/06 08:12:19;;;;;;;12.57;5.32;;;;;;;;;;5043423;28;20014;-64
2022/07/06 08:14:45;;;;;;;10.20;4.38;;;;;;;;;;5026376;28;20080;-64
2022/07/06 08:17:10;;;;;;;13.90;5.50;;;;;;;;;;5046258;28;20040;-64
2022/07/06 08:19:36;;;;;;;14.10;4.88;;;;;;;;;;5040837;28;20069;-64
2022/07/06 08:22:06;;;;;;;11.10;4.15;;;;;;;;;;5042738;28;20067;-64
2022/07/06 08:24:32;;;;;;;6.80;4.30;;;;;;;;;;5041362;28;20024;-64
2022/07/06 08:26:58;;;;;;;10.40;5.18;;;;;;;;;;5041369;28;20402;-64
2022/07/06 08:29:23;;;;;;;7.50;4.03;;;;;;;;;;5035993;28;20508;-64
2022/07/06 08:31:48;;;;;;;6.95;3.80;;;;;;;;;;5028415;28;20126;-64
2022/07/06 08:34:14;;;;;;;8.45;4.00;;;;;;;;;;5043856;28;20103;-64
2022/07/06 08:36:39;;;;;;;5.68;3.78;;;;;;;;;;5037666;28;20033;-64
2022/07/06 08:39:05;;;;;;;10.23;4.00;;;;;;;;;;5031060;28;20119;-65
2022/07/06 08:41:30;;;;;;;10.73;4.25;;;;;;;;;;5043460;28;20037;-64
2022/07/06 08:43:55;;;;;;;8.75;4.20;;;;;;;;;;5041979;28;20033;-64
2022/07/06 08:46:21;;;;;;;7.28;3.38;;;;;;;;;;5041209;28;20048;-64
2022/07/06 08:48:48;;;;;;;12.27;4.20;;;;;;;;;;5039287;28;20039;-64
2022/07/06 08:51:14;;;;;;;7.82;4.55;;;;;;;;;;5039019;28;20052;-64
2022/07/06 08:53:43;;;;;;;10.23;4.30;;;;;;;;;;5027113;28;20034;-64
2022/07/06 08:56:09;;;;;;;9.00;5.47;;;;;;;;;;5021298;28;20045;-64
2022/07/06 08:58:34;;;;;;;10.30;5.15;;;;;;;;;;5028115;28;20033;-65
2022/07/06 09:01:00;;;;;;;9.52;4.80;;;;;;;;;;5038531;28;20041;-64
2022/07/06 09:03:26;;;;;;;9.18;4.85;;;;;;;;;;5027413;28;20096;-64
2022/07/06 09:05:52;;;;;;;14.80;5.40;;;;;;;;;;5035382;28;20085;-64
2022/07/06 09:08:19;;;;;;;11.00;5.03;;;;;;;;;;5040720;28;20263;-64
2022/07/06 09:10:44;;;;;;;12.07;5.38;;;;;;;;;;5043172;28;20052;-65
2022/07/06 09:13:09;;;;;;;11.02;5.60;;;;;;;;;;5032736;28;20484;-65
2022/07/06 09:15:39;;;;;;;9.18;5.03;;;;;;;;;;5030519;28;20381;-65
2022/07/06 09:18:05;;;;;;;16.65;5.18;;;;;;;;;;5029904;28;20079;-65
2022/07/06 09:20:32;;;;;;;12.15;5.13;;;;;;;;;;5029908;28;20055;-64
2022/07/06 09:23:00;;;;;;;11.60;4.25;;;;;;;;;;5032178;28;20026;-65
2022/07/06 09:25:26;;;;;;;9.88;4.10;;;;;;;;;;5045412;28;20036;-64
2022/07/06 09:27:54;;;;;;;9.95;4.43;;;;;;;;;;5041275;28;20488;-64
2022/07/06 09:30:20;;;;;;;7.60;3.90;;;;;;;;;;5030351;28;20106;-64
2022/07/06 09:32:49;;;;;;;9.32;3.90;;;;;;;;;;5044598;28;20382;-64
2022/07/06 09:35:29;;;;;;;9.30;3.95;;;;;;;;;;5041867;28;20042;-65
2022/07/06 09:38:09;;;;;;;7.05;3.97;;;;;;;;;;5063218;28;20061;-64
2022/07/06 09:40:40;;;;;;;9.25;4.30;;;;;;;;;;5053361;28;20447;-64
2022/07/06 09:43:13;;;;;;;7.65;3.47;;;;;;;;;;5049234;28;20021;-64
2022/07/06 09:45:40;;;;;;;6.72;3.30;;;;;;;;;;5048160;28;20029;-64
2022/07/06 09:48:08;;;;;;;6.00;3.28;;;;;;;;;;5037104;28;20452;-64
2022/07/06 09:50:42;;;;;;;7.13;3.22;;;;;;;;;;5041535;28;20444;-65
2022/07/06 09:53:07;;;;;;;5.65;3.10;;;;;;;;;;5046286;28;20037;-65
2022/07/06 09:55:33;;;;;;;6.85;2.90;;;;;;;;;;5049415;28;20068;-64
2022/07/06 09:57:58;;;;;;;4.65;2.97;;;;;;;;;;5049587;28;20087;-65
2022/07/06 10:00:24;;;;;;;5.28;3.10;;;;;;;;;;5039616;28;20025;-64
2022/07/06 10:02:50;;;;;;;7.13;3.20;;;;;;;;;;5029390;28;20041;-64
2022/07/06 10:05:17;;;;;;;5.43;3.28;;;;;;;;;;5040932;28;20029;-64
2022/07/06 10:07:45;;;;;;;8.73;3.35;;;;;;;;;;5034088;28;20029;-64
2022/07/06 10:10:11;;;;;;;5.18;3.53;;;;;;;;;;5048564;28;20036;-64
2022/07/06 10:12:38;;;;;;;9.55;3.28;;;;;;;;;;5037424;28;20033;-64
2022/07/06 10:15:05;;;;;;;5.68;2.90;;;;;;;;;;5043945;28;20550;-65
2022/07/06 10:17:30;;;;;;;6.80;3.42;;;;;;;;;;5042531;28;20407;-64
2022/07/06 10:19:57;;;;;;;6.43;4.00;;;;;;;;;;5040549;28;20516;-65
2022/07/06 10:22:22;;;;;;;7.18;3.60;;;;;;;;;;5040067;28;20041;-64
2022/07/06 10:24:49;;;;;;;7.80;3.40;;;;;;;;;;5045348;28;20029;-65
2022/07/06 10:27:15;;;;;;;6.53;3.13;;;;;;;;;;5046983;28;20120;-64
2022/07/06 10:29:40;;;;;;;6.65;3.22;;;;;;;;;;5040255;28;20183;-64
2022/07/06 10:32:08;;;;;;;6.00;3.63;;;;;;;;;;5046433;28;20119;-64
2022/07/06 10:34:36;;;;;;;7.35;3.38;;;;;;;;;;5047872;28;20531;-65
2022/07/06 10:37:02;;;;;;;5.38;3.10;;;;;;;;;;5045004;28;20115;-65
2022/07/06 10:42:40;;;;;;;10.32;3.20;;;;;;;;;;5048069;28;20097;-65
2022/07/06 10:45:06;;;;;;;8.50;3.63;;;;;;;;;;5046940;28;20029;-63
2022/07/06 10:47:32;;;;;;;7.43;3.58;;;;;;;;;;5047419;28;20031;-65
2022/07/06 10:50:01;;;;;;;9.27;4.78;;;;;;;;;;5047664;28;20411;-65
2022/07/06 10:52:51;;;;;;;9.70;4.80;;;;;;;;;;5047116;28;20033;-64
2022/07/06 10:55:33;;;;;;;8.98;4.38;;;;;;;;;;5048367;28;20416;-64
2022/07/06 10:58:00;;;;;;;9.95;5.10;;;;;;;;;;5047770;28;20082;-65
2022/07/06 11:00:25;;;;;;;8.65;4.55;;;;;;;;;;5047903;28;20168;-65
2022/07/06 11:02:50;;;;;;;8.65;4.60;;;;;;;;;;5048097;28;20538;-64
2022/07/06 11:05:41;;;;;;;8.20;4.45;;;;;;;;;;5043766;28;20044;-65
2022/07/06 11:08:10;;;;;;;6.75;4.45;;;;;;;;;;5031377;28;20112;-64
2022/07/06 11:10:48;;;;;;;9.50;4.50;;;;;;;;;;5040507;28;20033;-64
2022/07/06 11:13:28;;;;;;;8.10;4.28;;;;;;;;;;5047272;28;20045;-65
2022/07/06 11:16:02;;;;;;;6.25;3.50;;;;;;;;;;5045714;28;20025;-65
2022/07/06 11:18:27;;;;;;;;;;;;;;;;;;5044972;28;20033;-65
2022/07/06 11:21:35;;;;;;;6.22;3.90;;;;;;;;;;5045834;28;19913;-65
2022/07/06 11:24:01;;;;;;;6.03;3.75;;;;;;;;;;5037335;28;20466;-65
2022/07/06 11:26:27;;;;;;;6.90;3.50;;;;;;;;;;5039223;28;20760;-65
2022/07/06 11:28:53;;;;;;;6.95;3.60;;;;;;;;;;5035348;28;20049;-64
2022/07/06 11:31:18;;;;;;;9.93;3.97;;;;;;;;;;5040863;28;20044;-65
2022/07/06 11:33:47;;;;;;;7.35;3.25;;;;;;;;;;5039477;28;20041;-65
2022/07/06 11:36:17;;;;;;;6.43;2.80;;;;;;;;;;5030595;28;20098;-65
2022/07/06 11:38:44;;;;;;;3.92;2.53;;;;;;;;;;5035582;28;20068;-64
2022/07/06 11:41:11;;;;;;;4.43;2.67;;;;;;;;;;5037428;28;20141;-64
2022/07/06 11:43:37;;;;;;;4.05;2.55;;;;;;;;;;5044376;28;20090;-65
2022/07/06 11:46:03;;;;;;;5.90;2.30;;;;;;;;;;5041144;28;20028;-64
2022/07/06 11:48:28;;;;;;;3.92;2.13;;;;;;;;;;5045119;28;20033;-64
2022/07/06 11:51:13;;;;;;;3.22;1.98;;;;;;;;;;5039009;28;20037;-64
2022/07/06 11:53:43;;;;;;;2.72;1.83;;;;;;;;;;5035824;28;20068;-64
2022/07/06 11:56:09;;;;;;;3.95;2.42;;;;;;;;;;5037530;28;20080;-64
2022/07/06 11:58:35;;;;;;;3.75;2.00;;;;;;;;;;5039168;28;20053;-65
2022/07/06 12:01:09;;;;;;;5.63;2.50;;;;;;;;;;5038578;28;20083;-64
2022/07/06 12:03:35;;;;;;;4.70;2.55;;;;;;;;;;5039334;28;20025;-64
2022/07/06 12:06:05;;;;;;;4.07;2.40;;;;;;;;;;5042913;28;20052;-64
2022/07/06 12:08:31;;;;;;;3.58;2.42;;;;;;;;;;5041497;28;20036;-66
2022/07/06 12:10:57;;;;;;;2.83;1.85;;;;;;;;;;5043180;28;20033;-64
2022/07/06 12:13:24;;;;;;;4.20;2.40;;;;;;;;;;5035418;28;20045;-64
2022/07/06 12:15:49;;;;;;;5.60;2.33;;;;;;;;;;5041573;28;20040;-64
2022/07/06 12:18:15;;;;;;;3.88;2.50;;;;;;;;;;5040257;28;20098;-64
2022/07/06 12:20:40;;;;;;;4.13;2.58;;;;;;;;;;5036478;28;20583;-64
2022/07/06 12:23:07;;;;;;;4.22;2.33;;;;;;;;;;5022462;28;20032;-64
2022/07/06 12:25:34;;;;;;;4.28;2.20;;;;;;;;;;5035669;28;20140;-64
2022/07/06 12:28:00;;;;;;;5.15;2.20;;;;;;;;;;5040200;28;20041;-64
2022/07/06 12:30:25;;;;;;;3.88;2.17;;;;;;;;;;5039816;28;20025;-64
2022/07/06 12:33:10;;;;;;;4.20;2.13;;;;;;;;;;5038747;28;20040;-64
2022/07/06 12:35:36;;;;;;;3.13;2.30;;;;;;;;;;5038102;28;20037;-64
2022/07/06 12:38:01;;;;;;;3.30;2.20;;;;;;;;;;5036795;28;20044;-64
2022/07/06 12:40:27;;;;;;;6.25;2.78;;;;;;;;;;5026766;28;20033;-66
2022/07/06 12:42:53;;;;;;;4.63;2.70;;;;;;;;;;5043976;28;20059;-65
2022/07/06 12:45:18;;;;;;;5.45;2.58;;;;;;;;;;5035030;28;20037;-66
2022/07/06 12:48:00;;;;;;;6.57;2.53;;;;;;;;;;5039324;28;20519;-66
2022/07/06 12:50:36;;;;;;;5.22;3.00;;;;;;;;;;5040953;28;20042;-66
2022/07/06 12:53:03;;;;;;;8.18;2.78;;;;;;;;;;5039807;28;20044;-66
2022/07/06 12:55:29;;;;;;;5.13;2.53;;;;;;;;;;5039691;28;20054;-66
2022/07/06 12:57:56;;;;;;;7.82;2.70;;;;;;;;;;5046525;28;20028;-66
2022/07/06 13:00:22;;;;;;;6.40;2.70;;;;;;;;;;5044251;28;20039;-66
2022/07/06 13:02:53;;;;;;;6.90;3.08;;;;;;;;;;5040956;28;20037;-65
2022/07/06 13:05:30;;;;;;;8.32;3.50;;;;;;;;;;5041659;28;20033;-65
2022/07/06 13:07:57;;;;;;;6.22;2.63;;;;;;;;;;5042632;28;20033;-65
2022/07/06 13:10:24;;;;;;;4.68;2.80;;;;;;;;;;5044296;28;20041;-65
2022/07/06 13:12:50;;;;;;;7.45;3.30;;;;;;;;;;5045106;28;20565;-65
2022/07/06 13:15:16;;;;;;;3.67;2.47;;;;;;;;;;5030224;28;20033;-65
2022/07/06 13:17:42;;;;;;;5.38;2.80;;;;;;;;;;5035610;28;20040;-64
2022/07/06 13:20:10;;;;;;;4.25;3.13;;;;;;;;;;5049362;28;20052;-65
2022/07/06 13:22:35;;;;;;;5.32;3.20;;;;;;;;;;5044739;28;20369;-65
2022/07/06 13:25:01;;;;;;;4.93;3.17;;;;;;;;;;5044233;28;20557;-65
2022/07/06 13:27:26;;;;;;;8.23;3.75;;;;;;;;;;5045341;28;20032;-65
2022/07/06 13:29:52;;;;;;;6.20;3.92;;;;;;;;;;5042810;28;20412;-65
2022/07/06 13:32:17;;;;;;;5.40;3.15;;;;;;;;;;5045430;28;20090;-64
2022/07/06 13:34:42;;;;;;;5.03;3.70;;;;;;;;;;5039546;28;20048;-64
2022/07/06 13:37:08;;;;;;;5.13;3.60;;;;;;;;;;5046172;28;20496;-64
2022/07/06 13:39:34;;;;;;;5.60;3.22;;;;;;;;;;5040861;28;20048;-65
2022/07/06 13:41:59;;;;;;;5.88;3.58;;;;;;;;;;5044774;28;20063;-65
2022/07/06 13:44:25;;;;;;;8.55;3.58;;;;;;;;;;5043024;28;20037;-64
2022/07/06 13:46:50;;;;;;;6.03;3.50;;;;;;;;;;5045050;28;20106;-64
2022/07/06 13:49:16;;;;;;;6.18;3.60;;;;;;;;;;5043170;28;20234;-65
2022/07/06 13:51:42;;;;;;;4.28;3.38;;;;;;;;;;5037924;28;20049;-66
2022/07/06 13:54:08;;;;;;;4.57;3.65;;;;;;;;;;5040300;28;20083;-65
2022/07/06 13:56:33;;;;;;;8.63;3.50;;;;;;;;;;5040554;28;20029;-65
2022/07/06 13:58:59;;;;;;;5.90;3.70;;;;;;;;;;5043509;28;20039;-65
2022/07/06 14:01:24;;;;;;;4.13;3.72;;;;;;;;;;5044264;28;20079;-65
2022/07/06 14:03:49;;;;;;;11.07;4.05;;;;;;;;;;5044855;28;20549;-65
2022/07/06 14:06:16;;;;;;;5.13;4.20;;;;;;;;;;5041186;28;20029;-65
2022/07/06 14:08:42;;;;;;;7.75;4.35;;;;;;;;;;5042845;28;20950;-66
2022/07/06 14:11:08;;;;;;;7.03;3.50;;;;;;;;;;5043458;28;20499;-65
2022/07/06 14:13:35;;;;;;;7.85;3.47;;;;;;;;;;5044468;28;20190;-65
2022/07/06 14:16:01;;;;;;;8.52;3.03;;;;;;;;;;5044160;28;20025;-65
2022/07/06 14:18:27;;;;;;;6.55;3.40;;;;;;;;;;5042703;28;20028;-66
2022/07/06 14:20:53;;;;;;;6.50;3.20;;;;;;;;;;5039027;28;20043;-67
2022/07/06 14:23:20;;;;;;;6.25;3.40;;;;;;;;;;5042010;28;20108;-66
2022/07/06 14:25:46;;;;;;;4.40;3.35;;;;;;;;;;5046317;28;20029;-66
2022/07/06 14:28:16;;;;;;;5.38;2.90;;;;;;;;;;5036122;28;20033;-66
2022/07/06 14:30:43;;;;;;;5.40;3.25;;;;;;;;;;5033451;28;20049;-66
2022/07/06 14:33:09;;;;;;;5.20;3.40;;;;;;;;;;5036594;28;20091;-66
2022/07/06 14:35:35;;;;;;;5.15;4.00;;;;;;;;;;5048909;28;20025;-66
2022/07/06 14:38:02;;;;;;;6.38;3.60;;;;;;;;;;5042236;28;20034;-66
2022/07/06 14:40:27;;;;;;;6.55;4.20;;;;;;;;;;5041023;28;20038;-66
2022/07/06 14:42:53;;;;;;;8.02;4.00;;;;;;;;;;5037618;28;20023;-66